Current | Forecast
Updated: 8:30 AM CEST on July 27, 2017
Observed at La Coruna Airport, Spain
Temperature 18°C
Humidity 94%
Dew Point 17°C
Wind SSE at 6 km/h
Pressure 1017 hPa (Steady)
Conditions Overcast
Visibility 6.0 kilometers
UV 0 out of 16
Clouds Overcast (OVC) : 579 m
Yesterday's Maximum 23°C
Yesterday's Minimum 16°C approx.
Yesterday's Cooling Degree Days 2 approx.
Sunrise7:18 AM CEST
Sunset10:01 PM CEST
Moon Rise11:51 AM CEST
Moon Set12:04 AM CEST
Moon PhaseMoon Phase
Waxing Crescent
Raw METARMETAR LECO 270630Z 16003KT 130V190 6000 OVC019 18/17 Q1017 TEMPO BKN010


Monday
. High: 64° F.
Tuesday
. High: 64° F.
Wednesday
. High: 59° F.
Thursday
. High: 59° F.
Friday
. High: 69° F.
Saturday
. High: 66° F.
Sunday
. High: 68° F.
Monday
. High: 75° F.

Click here for Marine Information
Scientific forecaster discussion (NWS)

Units: English | Metric

Find the Weather for any City, State or Zipcode, or Country:

U.S. State List | Severe Weather | Tropical Storms | Ski Conditions
United States | Canada | Central America | South America | Asia | Europe | Australia | Africa | Islands

Weather Underground

© Copyright 2017
The Weather Company, LLC